sensor_id;sensor_type;location;lat;lon;timestamp;temperature;humidity
2495;DHT22;1258;48.336;14.322;2024-03-23T00:55:38;7.90;99.90
2495;DHT22;1258;48.336;14.322;2024-03-23T00:58:04;8.00;99.90
2495;DHT22;1258;48.336;14.322;2024-03-23T01:00:31;7.90;99.90
2495;DHT22;1258;48.336;14.322;2024-03-23T01:02:57;7.90;99.90
2495;DHT22;1258;48.336;14.322;2024-03-23T01:05:24;7.90;99.90
2495;DHT22;1258;48.336;14.322;2024-03-23T01:07:50;7.80;99.90
2495;DHT22;1258;48.336;14.322;2024-03-23T01:10:16;7.80;99.90
2495;DHT22;1258;48.336;14.322;2024-03-23T01:12:44;7.90;99.90
2495;DHT22;1258;48.336;14.322;2024-03-23T01:15:11;7.80;99.90
2495;DHT22;1258;48.336;14.322;2024-03-23T01:17:37;7.90;99.90
2495;DHT22;1258;48.336;14.322;2024-03-23T01:20:05;7.90;99.90
2495;DHT22;1258;48.336;14.322;2024-03-23T01:22:31;7.80;99.90
2495;DHT22;1258;48.336;14.322;2024-03-23T01:24:58;7.80;99.90
2495;DHT22;1258;48.336;14.322;2024-03-23T01:27:24;7.80;99.90
2495;DHT22;1258;48.336;14.322;2024-03-23T01:29:53;7.70;99.90
2495;DHT22;1258;48.336;14.322;2024-03-23T01:32:19;7.60;99.90
2495;DHT22;1258;48.336;14.322;2024-03-23T01:34:46;7.60;99.90
2495;DHT22;1258;48.336;14.322;2024-03-23T01:37:11;7.60;99.90
2495;DHT22;1258;48.336;14.322;2024-03-23T01:39:38;7.70;99.90
2495;DHT22;1258;48.336;14.322;2024-03-23T01:42:04;7.70;99.90
2495;DHT22;1258;48.336;14.322;2024-03-23T01:44:31;7.70;99.90
2495;DHT22;1258;48.336;14.322;2024-03-23T01:46:58;7.70;99.90
2495;DHT22;1258;48.336;14.322;2024-03-23T01:49:26;7.70;99.90
2495;DHT22;1258;48.336;14.322;2024-03-23T01:51:52;7.70;99.90
2495;DHT22;1258;48.336;14.322;2024-03-23T01:54:18;7.70;99.90
2495;DHT22;1258;48.336;14.322;2024-03-23T01:56:45;7.70;99.90
2495;DHT22;1258;48.336;14.322;2024-03-23T01:59:13;7.70;99.90
2495;DHT22;1258;48.336;14.322;2024-03-23T02:01:39;7.70;99.90
2495;DHT22;1258;48.336;14.322;2024-03-23T02:04:08;7.80;99.90
2495;DHT22;1258;48.336;14.322;2024-03-23T02:06:35;7.80;99.90
2495;DHT22;1258;48.336;14.322;2024-03-23T02:09:02;7.80;99.90
2495;DHT22;1258;48.336;14.322;2024-03-23T02:11:29;7.80;99.90
2495;DHT22;1258;48.336;14.322;2024-03-23T02:13:56;7.80;99.90
2495;DHT22;1258;48.336;14.322;2024-03-23T02:16:22;7.70;99.90
2495;DHT22;1258;48.336;14.322;2024-03-23T02:18:49;7.80;99.90
2495;DHT22;1258;48.336;14.322;2024-03-23T02:21:17;7.70;99.90
2495;DHT22;1258;48.336;14.322;2024-03-23T02:23:45;7.80;99.90
2495;DHT22;1258;48.336;14.322;2024-03-23T02:26:11;7.90;99.90
2495;DHT22;1258;48.336;14.322;2024-03-23T02:28:39;7.90;99.90
2495;DHT22;1258;48.336;14.322;2024-03-23T02:31:06;8.00;99.90
2495;DHT22;1258;48.336;14.322;2024-03-23T02:33:31;7.90;99.90
2495;DHT22;1258;48.336;14.322;2024-03-23T02:35:59;7.90;99.90
2495;DHT22;1258;48.336;14.322;2024-03-23T02:38:25;7.90;99.90
2495;DHT22;1258;48.336;14.322;2024-03-23T02:40:54;7.90;99.90
2495;DHT22;1258;48.336;14.322;2024-03-23T02:43:21;7.80;99.90
2495;DHT22;1258;48.336;14.322;2024-03-23T02:45:46;7.70;99.90
2495;DHT22;1258;48.336;14.322;2024-03-23T02:48:16;7.70;99.90
2495;DHT22;1258;48.336;14.322;2024-03-23T02:50:45;7.70;99.90
2495;DHT22;1258;48.336;14.322;2024-03-23T02:53:12;7.70;99.90
2495;DHT22;1258;48.336;14.322;2024-03-23T02:55:37;7.80;99.90
2495;DHT22;1258;48.336;14.322;2024-03-23T02:58:06;7.70;99.90
2495;DHT22;1258;48.336;14.322;2024-03-23T03:00:32;7.80;99.90
2495;DHT22;1258;48.336;14.322;2024-03-23T03:02:59;7.70;99.90
2495;DHT22;1258;48.336;14.322;2024-03-23T03:05:24;7.60;99.90
2495;DHT22;1258;48.336;14.322;2024-03-23T03:07:51;7.50;99.90
2495;DHT22;1258;48.336;14.322;2024-03-23T03:10:17;7.50;99.90
2495;DHT22;1258;48.336;14.322;2024-03-23T03:12:44;7.50;99.90
2495;DHT22;1258;48.336;14.322;2024-03-23T03:15:11;7.50;99.90
2495;DHT22;1258;48.336;14.322;2024-03-23T03:17:38;7.50;99.90
2495;DHT22;1258;48.336;14.322;2024-03-23T03:20:05;7.50;99.90
2495;DHT22;1258;48.336;14.322;2024-03-23T03:22:32;7.50;99.90
2495;DHT22;1258;48.336;14.322;2024-03-23T03:24:59;7.40;99.90
2495;DHT22;1258;48.336;14.322;2024-03-23T03:27:28;7.20;99.90
2495;DHT22;1258;48.336;14.322;2024-03-23T03:29:54;7.30;99.90
2495;DHT22;1258;48.336;14.322;2024-03-23T03:32:22;7.30;99.90
2495;DHT22;1258;48.336;14.322;2024-03-23T03:34:48;7.30;99.90
2495;DHT22;1258;48.336;14.322;2024-03-23T03:37:15;7.30;99.90
2495;DHT22;1258;48.336;14.322;2024-03-23T03:39:41;7.30;99.90
2495;DHT22;1258;48.336;14.322;2024-03-23T03:42:08;7.30;99.90
2495;DHT22;1258;48.336;14.322;2024-03-23T03:44:34;7.30;99.90
2495;DHT22;1258;48.336;14.322;2024-03-23T03:47:02;7.30;99.90
2495;DHT22;1258;48.336;14.322;2024-03-23T03:49:29;7.30;99.90
2495;DHT22;1258;48.336;14.322;2024-03-23T03:51:56;7.30;99.90
2495;DHT22;1258;48.336;14.322;2024-03-23T03:54:22;7.30;99.90
2495;DHT22;1258;48.336;14.322;2024-03-23T03:56:49;7.20;99.90
2495;DHT22;1258;48.336;14.322;2024-03-23T03:59:15;7.20;99.90
2495;DHT22;1258;48.336;14.322;2024-03-23T04:01:42;7.20;99.90
2495;DHT22;1258;48.336;14.322;2024-03-23T04:04:08;7.20;99.90
2495;DHT22;1258;48.336;14.322;2024-03-23T04:06:36;7.20;99.90
2495;DHT22;1258;48.336;14.322;2024-03-23T04:09:03;7.20;99.90
2495;DHT22;1258;48.336;14.322;2024-03-23T04:11:30;7.20;99.90
2495;DHT22;1258;48.336;14.322;2024-03-23T04:13:55;7.10;99.90
2495;DHT22;1258;48.336;14.322;2024-03-23T04:16:27;7.10;99.90
2495;DHT22;1258;48.336;14.322;2024-03-23T04:18:53;7.00;99.90
2495;DHT22;1258;48.336;14.322;2024-03-23T04:21:20;7.10;99.90
2495;DHT22;1258;48.336;14.322;2024-03-23T04:23:47;7.10;99.90
2495;DHT22;1258;48.336;14.322;2024-03-23T04:26:15;7.00;99.90
2495;DHT22;1258;48.336;14.322;2024-03-23T04:28:41;7.00;99.90
2495;DHT22;1258;48.336;14.322;2024-03-23T04:31:08;7.00;99.90
2495;DHT22;1258;48.336;14.322;2024-03-23T04:33:34;7.00;99.90
2495;DHT22;1258;48.336;14.322;2024-03-23T04:36:01;7.00;99.90
2495;DHT22;1258;48.336;14.322;2024-03-23T04:38:28;6.90;99.90
2495;DHT22;1258;48.336;14.322;2024-03-23T04:40:57;6.90;99.90
2495;DHT22;1258;48.336;14.322;2024-03-23T04:43:25;6.90;99.90
2495;DHT22;1258;48.336;14.322;2024-03-23T04:45:52;6.90;99.90
2495;DHT22;1258;48.336;14.322;2024-03-23T04:48:20;6.80;99.90
2495;DHT22;1258;48.336;14.322;2024-03-23T04:50:48;6.80;99.90
2495;DHT22;1258;48.336;14.322;2024-03-23T04:53:15;6.70;99.90
2495;DHT22;1258;48.336;14.322;2024-03-23T04:55:43;6.60;99.90
2495;DHT22;1258;48.336;14.322;2024-03-23T04:58:11;6.60;99.90
2495;DHT22;1258;48.336;14.322;2024-03-23T05:00:37;6.60;99.90
2495;DHT22;1258;48.336;14.322;2024-03-23T05:03:04;6.60;99.90
2495;DHT22;1258;48.336;14.322;2024-03-23T05:05:30;6.60;99.90
2495;DHT22;1258;48.336;14.322;2024-03-23T05:07:57;6.50;99.90
2495;DHT22;1258;48.336;14.322;2024-03-23T05:10:23;6.50;99.90
2495;DHT22;1258;48.336;14.322;2024-03-23T05:12:50;6.40;99.90
2495;DHT22;1258;48.336;14.322;2024-03-23T05:15:18;6.30;99.90
2495;DHT22;1258;48.336;14.322;2024-03-23T05:17:45;6.20;99.90
2495;DHT22;1258;48.336;14.322;2024-03-23T05:20:11;6.30;99.90
2495;DHT22;1258;48.336;14.322;2024-03-23T05:22:38;6.30;99.90
2495;DHT22;1258;48.336;14.322;2024-03-23T05:25:04;6.20;99.90
2495;DHT22;1258;48.336;14.322;2024-03-23T05:27:32;6.20;99.90
2495;DHT22;1258;48.336;14.322;2024-03-23T05:29:58;6.20;99.90
2495;DHT22;1258;48.336;14.322;2024-03-23T05:32:27;6.20;99.90
2495;DHT22;1258;48.336;14.322;2024-03-23T05:34:54;6.20;99.90
2495;DHT22;1258;48.336;14.322;2024-03-23T05:37:22;6.20;99.90
2495;DHT22;1258;48.336;14.322;2024-03-23T05:39:48;6.20;99.90
2495;DHT22;1258;48.336;14.322;2024-03-23T05:42:16;6.20;99.90
2495;DHT22;1258;48.336;14.322;2024-03-23T05:44:43;6.20;99.90
2495;DHT22;1258;48.336;14.322;2024-03-23T05:47:10;6.40;99.90
2495;DHT22;1258;48.336;14.322;2024-03-23T05:49:39;6.50;99.90
2495;DHT22;1258;48.336;14.322;2024-03-23T05:52:07;6.60;99.90
2495;DHT22;1258;48.336;14.322;2024-03-23T05:54:33;6.60;99.90
2495;DHT22;1258;48.336;14.322;2024-03-23T05:57:01;6.70;99.90
2495;DHT22;1258;48.336;14.322;2024-03-23T05:59:27;6.70;99.90
2495;DHT22;1258;48.336;14.322;2024-03-23T06:01:54;6.70;99.90
2495;DHT22;1258;48.336;14.322;2024-03-23T06:04:20;6.70;99.90
2495;DHT22;1258;48.336;14.322;2024-03-23T06:06:50;6.80;99.90
2495;DHT22;1258;48.336;14.322;2024-03-23T06:09:17;6.90;99.90
2495;DHT22;1258;48.336;14.322;2024-03-23T06:11:44;7.00;99.90
2495;DHT22;1258;48.336;14.322;2024-03-23T06:14:10;6.90;99.90
2495;DHT22;1258;48.336;14.322;2024-03-23T06:16:37;6.90;99.90
2495;DHT22;1258;48.336;14.322;2024-03-23T06:19:03;6.70;99.90
2495;DHT22;1258;48.336;14.322;2024-03-23T06:21:32;6.50;99.90
2495;DHT22;1258;48.336;14.322;2024-03-23T06:23:59;6.40;99.90
2495;DHT22;1258;48.336;14.322;2024-03-23T06:26:26;6.60;99.90
2495;DHT22;1258;48.336;14.322;2024-03-23T06:28:52;6.70;99.90
2495;DHT22;1258;48.336;14.322;2024-03-23T06:31:19;6.80;99.90
2495;DHT22;1258;48.336;14.322;2024-03-23T06:33:45;6.80;99.90
2495;DHT22;1258;48.336;14.322;2024-03-23T06:36:12;7.00;99.90
2495;DHT22;1258;48.336;14.322;2024-03-23T06:38:38;7.00;99.90
2495;DHT22;1258;48.336;14.322;2024-03-23T06:41:06;7.10;99.90
2495;DHT22;1258;48.336;14.322;2024-03-23T06:43:32;7.20;99.90
2495;DHT22;1258;48.336;14.322;2024-03-23T06:45:59;7.20;99.90
2495;DHT22;1258;48.336;14.322;2024-03-23T06:48:25;7.30;99.90
2495;DHT22;1258;48.336;14.322;2024-03-23T06:50:56;7.30;99.90
2495;DHT22;1258;48.336;14.322;2024-03-23T06:53:22;7.40;99.90
2495;DHT22;1258;48.336;14.322;2024-03-23T06:55:50;7.40;99.90
2495;DHT22;1258;48.336;14.322;2024-03-23T06:58:19;7.50;99.90
2495;DHT22;1258;48.336;14.322;2024-03-23T07:00:46;7.70;99.90
2495;DHT22;1258;48.336;14.322;2024-03-23T07:03:12;7.60;99.90
2495;DHT22;1258;48.336;14.322;2024-03-23T07:05:39;7.80;99.90
2495;DHT22;1258;48.336;14.322;2024-03-23T07:08:05;8.10;99.90
2495;DHT22;1258;48.336;14.322;2024-03-23T07:10:32;8.00;99.90
2495;DHT22;1258;48.336;14.322;2024-03-23T07:12:58;8.10;99.90
2495;DHT22;1258;48.336;14.322;2024-03-23T07:15:27;7.70;99.90
2495;DHT22;1258;48.336;14.322;2024-03-23T07:17:53;8.00;99.90
2495;DHT22;1258;48.336;14.322;2024-03-23T07:20:20;8.00;99.90
2495;DHT22;1258;48.336;14.322;2024-03-23T07:22:46;7.70;99.90
2495;DHT22;1258;48.336;14.322;2024-03-23T07:25:14;8.00;99.90
2495;DHT22;1258;48.336;14.322;2024-03-23T07:27:40;8.00;99.90
2495;DHT22;1258;48.336;14.322;2024-03-23T07:30:08;8.20;99.90
2495;DHT22;1258;48.336;14.322;2024-03-23T07:32:35;8.20;99.90
2495;DHT22;1258;48.336;14.322;2024-03-23T07:35:03;8.50;99.90
2495;DHT22;1258;48.336;14.322;2024-03-23T07:37:29;8.40;99.90
2495;DHT22;1258;48.336;14.322;2024-03-23T07:39:56;8.40;99.90
2495;DHT22;1258;48.336;14.322;2024-03-23T07:42:23;8.70;99.90
2495;DHT22;1258;48.336;14.322;2024-03-23T07:44:52;8.80;99.90
2495;DHT22;1258;48.336;14.322;2024-03-23T07:47:19;8.90;99.90
2495;DHT22;1258;48.336;14.322;2024-03-23T07:49:48;8.90;99.90
2495;DHT22;1258;48.336;14.322;2024-03-23T07:52:14;8.80;99.90
2495;DHT22;1258;48.336;14.322;2024-03-23T07:54:40;9.20;99.90
2495;DHT22;1258;48.336;14.322;2024-03-23T07:57:07;9.30;99.90
2495;DHT22;1258;48.336;14.322;2024-03-23T07:59:34;9.50;99.90
2495;DHT22;1258;48.336;14.322;2024-03-23T08:02:00;9.40;99.90
2495;DHT22;1258;48.336;14.322;2024-03-23T08:04:29;9.40;99.90
2495;DHT22;1258;48.336;14.322;2024-03-23T08:06:57;9.70;99.90
2495;DHT22;1258;48.336;14.322;2024-03-23T08:09:24;9.80;99.90
2495;DHT22;1258;48.336;14.322;2024-03-23T08:11:50;9.90;99.90
2495;DHT22;1258;48.336;14.322;2024-03-23T08:14:17;10.00;99.90
2495;DHT22;1258;48.336;14.322;2024-03-23T08:16:43;10.10;99.90
2495;DHT22;1258;48.336;14.322;2024-03-23T08:19:14;10.10;99.90
2495;DHT22;1258;48.336;14.322;2024-03-23T08:21:40;10.30;99.90
2495;DHT22;1258;48.336;14.322;2024-03-23T08:24:08;10.50;99.90
2495;DHT22;1258;48.336;14.322;2024-03-23T08:26:34;10.30;99.90
2495;DHT22;1258;48.336;14.322;2024-03-23T08:29:03;10.40;99.90
2495;DHT22;1258;48.336;14.322;2024-03-23T08:31:29;10.50;99.90
2495;DHT22;1258;48.336;14.322;2024-03-23T08:33:56;10.60;99.90
2495;DHT22;1258;48.336;14.322;2024-03-23T08:36:21;10.90;99.90
2495;DHT22;1258;48.336;14.322;2024-03-23T08:38:49;10.80;99.90
2495;DHT22;1258;48.336;14.322;2024-03-23T08:41:17;10.90;99.90
2495;DHT22;1258;48.336;14.322;2024-03-23T08:43:44;11.00;99.90
2495;DHT22;1258;48.336;14.322;2024-03-23T08:46:11;11.10;99.90
2495;DHT22;1258;48.336;14.322;2024-03-23T08:48:39;11.20;99.90
2495;DHT22;1258;48.336;14.322;2024-03-23T08:51:07;11.40;99.90
2495;DHT22;1258;48.336;14.322;2024-03-23T08:53:35;11.60;99.90
2495;DHT22;1258;48.336;14.322;2024-03-23T08:56:01;11.70;99.90
2495;DHT22;1258;48.336;14.322;2024-03-23T08:58:31;11.70;99.90
2495;DHT22;1258;48.336;14.322;2024-03-23T09:01:03;11.80;99.90
2495;DHT22;1258;48.336;14.322;2024-03-23T09:03:30;11.80;99.90
2495;DHT22;1258;48.336;14.322;2024-03-23T09:05:56;11.80;99.90
2495;DHT22;1258;48.336;14.322;2024-03-23T09:08:23;11.70;99.90
2495;DHT22;1258;48.336;14.322;2024-03-23T09:10:49;11.70;99.90
2495;DHT22;1258;48.336;14.322;2024-03-23T09:13:16;11.80;99.90
2495;DHT22;1258;48.336;14.322;2024-03-23T09:15:47;12.10;99.90
2495;DHT22;1258;48.336;14.322;2024-03-23T09:18:14;12.20;99.90
2495;DHT22;1258;48.336;14.322;2024-03-23T09:20:40;12.40;99.90
2495;DHT22;1258;48.336;14.322;2024-03-23T09:23:07;12.50;99.90
2495;DHT22;1258;48.336;14.322;2024-03-23T09:25:36;12.70;99.90
2495;DHT22;1258;48.336;14.322;2024-03-23T09:28:03;12.70;99.90
2495;DHT22;1258;48.336;14.322;2024-03-23T09:30:29;12.90;99.90
2495;DHT22;1258;48.336;14.322;2024-03-23T09:32:57;12.90;99.90
2495;DHT22;1258;48.336;14.322;2024-03-23T09:35:23;12.80;99.90
2495;DHT22;1258;48.336;14.322;2024-03-23T09:37:50;13.00;99.90
2495;DHT22;1258;48.336;14.322;2024-03-23T09:40:17;12.80;99.90
2495;DHT22;1258;48.336;14.322;2024-03-23T09:42:50;13.10;99.90
2495;DHT22;1258;48.336;14.322;2024-03-23T09:45:19;13.20;99.90
2495;DHT22;1258;48.336;14.322;2024-03-23T09:47:46;13.30;99.90
2495;DHT22;1258;48.336;14.322;2024-03-23T09:50:14;13.30;99.90
2495;DHT22;1258;48.336;14.322;2024-03-23T09:52:41;13.40;99.90
2495;DHT22;1258;48.336;14.322;2024-03-23T09:55:08;13.50;99.90
2495;DHT22;1258;48.336;14.322;2024-03-23T09:57:35;13.40;99.90
2495;DHT22;1258;48.336;14.322;2024-03-23T10:00:01;13.00;99.90
2495;DHT22;1258;48.336;14.322;2024-03-23T10:02:29;12.90;99.90
2495;DHT22;1258;48.336;14.322;2024-03-23T10:04:55;12.90;99.90
2495;DHT22;1258;48.336;14.322;2024-03-23T10:07:25;12.90;99.90
2495;DHT22;1258;48.336;14.322;2024-03-23T10:09:51;12.90;99.90
2495;DHT22;1258;48.336;14.322;2024-03-23T10:12:19;12.90;99.90
2495;DHT22;1258;48.336;14.322;2024-03-23T10:14:45;12.60;99.90
2495;DHT22;1258;48.336;14.322;2024-03-23T10:17:14;12.30;99.90
2495;DHT22;1258;48.336;14.322;2024-03-23T10:19:41;12.20;99.90
2495;DHT22;1258;48.336;14.322;2024-03-23T10:22:13;12.40;99.90
2495;DHT22;1258;48.336;14.322;2024-03-23T10:24:41;12.10;99.90
2495;DHT22;1258;48.336;14.322;2024-03-23T10:27:08;12.00;99.90
2495;DHT22;1258;48.336;14.322;2024-03-23T10:29:34;11.70;99.90
2495;DHT22;1258;48.336;14.322;2024-03-23T10:32:11;11.70;99.90
2495;DHT22;1258;48.336;14.322;2024-03-23T10:34:37;11.50;99.90
2495;DHT22;1258;48.336;14.322;2024-03-23T10:37:05;11.00;99.90
2495;DHT22;1258;48.336;14.322;2024-03-23T10:39:32;10.30;99.90
2495;DHT22;1258;48.336;14.322;2024-03-23T10:42:03;9.70;99.90
2495;DHT22;1258;48.336;14.322;2024-03-23T10:44:29;9.40;99.90
2495;DHT22;1258;48.336;14.322;2024-03-23T10:46:58;9.00;99.90
2495;DHT22;1258;48.336;14.322;2024-03-23T10:49:28;8.80;99.90
2495;DHT22;1258;48.336;14.322;2024-03-23T10:51:57;8.70;99.90
2495;DHT22;1258;48.336;14.322;2024-03-23T10:54:24;8.60;99.90
2495;DHT22;1258;48.336;14.322;2024-03-23T10:56:55;8.40;99.90
2495;DHT22;1258;48.336;14.322;2024-03-23T10:59:24;8.30;99.90
2495;DHT22;1258;48.336;14.322;2024-03-23T11:01:55;8.30;99.90
2495;DHT22;1258;48.336;14.322;2024-03-23T11:04:31;8.40;99.90
2495;DHT22;1258;48.336;14.322;2024-03-23T11:06:58;8.10;99.90
2495;DHT22;1258;48.336;14.322;2024-03-23T11:09:41;7.90;99.90
2495;DHT22;1258;48.336;14.322;2024-03-23T11:12:27;8.20;99.90
2495;DHT22;1258;48.336;14.322;2024-03-23T11:14:57;8.20;99.90
2495;DHT22;1258;48.336;14.322;2024-03-23T11:17:26;8.30;99.90
2495;DHT22;1258;48.336;14.322;2024-03-23T11:19:58;8.20;99.90
2495;DHT22;1258;48.336;14.322;2024-03-23T11:22:42;8.30;99.90
2495;DHT22;1258;48.336;14.322;2024-03-23T11:25:15;8.30;99.90
2495;DHT22;1258;48.336;14.322;2024-03-23T11:27:44;8.30;99.90
2495;DHT22;1258;48.336;14.322;2024-03-23T11:30:16;8.10;99.90
2495;DHT22;1258;48.336;14.322;2024-03-23T11:32:44;8.10;99.90
2495;DHT22;1258;48.336;14.322;2024-03-23T11:35:24;8.00;99.90
2495;DHT22;1258;48.336;14.322;2024-03-23T11:38:04;7.90;99.90
2495;DHT22;1258;48.336;14.322;2024-03-23T11:40:30;7.90;99.90
2495;DHT22;1258;48.336;14.322;2024-03-23T11:42:59;7.80;99.90
2495;DHT22;1258;48.336;14.322;2024-03-23T11:45:27;7.60;99.90
2495;DHT22;1258;48.336;14.322;2024-03-23T11:48:05;7.60;99.90
2495;DHT22;1258;48.336;14.322;2024-03-23T11:50:31;7.40;99.90
2495;DHT22;1258;48.336;14.322;2024-03-23T11:53:09;7.50;99.90
2495;DHT22;1258;48.336;14.322;2024-03-23T11:55:46;7.10;99.90
2495;DHT22;1258;48.336;14.322;2024-03-23T11:58:14;6.90;99.90
2495;DHT22;1258;48.336;14.322;2024-03-23T12:00:41;6.60;99.90
2495;DHT22;1258;48.336;14.322;2024-03-23T12:03:08;6.50;99.90
2495;DHT22;1258;48.336;14.322;2024-03-23T12:05:36;6.50;99.90
2495;DHT22;1258;48.336;14.322;2024-03-23T12:08:20;6.70;99.90
2495;DHT22;1258;48.336;14.322;2024-03-23T12:10:49;6.50;99.90
2495;DHT22;1258;48.336;14.322;2024-03-23T12:13:17;6.30;99.90
2495;DHT22;1258;48.336;14.322;2024-03-23T12:15:45;6.20;99.90
2495;DHT22;1258;48.336;14.322;2024-03-23T12:18:13;6.10;99.90
2495;DHT22;1258;48.336;14.322;2024-03-23T12:20:40;5.90;99.90
2495;DHT22;1258;48.336;14.322;2024-03-23T12:23:08;5.90;99.90
2495;DHT22;1258;48.336;14.322;2024-03-23T12:25:35;5.90;99.90
2495;DHT22;1258;48.336;14.322;2024-03-23T12:28:02;5.90;99.90
2495;DHT22;1258;48.336;14.322;2024-03-23T12:30:28;5.80;99.90
2495;DHT22;1258;48.336;14.322;2024-03-23T12:32:57;5.70;99.90
2495;DHT22;1258;48.336;14.322;2024-03-23T12:35:22;5.80;99.90
2495;DHT22;1258;48.336;14.322;2024-03-23T12:37:49;5.80;99.90
2495;DHT22;1258;48.336;14.322;2024-03-23T12:40:15;5.80;99.90
2495;DHT22;1258;48.336;14.322;2024-03-23T12:42:42;5.60;99.90
2495;DHT22;1258;48.336;14.322;2024-03-23T12:45:08;5.60;99.90
2495;DHT22;1258;48.336;14.322;2024-03-23T12:47:35;5.70;99.90
2495;DHT22;1258;48.336;14.322;2024-03-23T12:50:03;5.60;99.90
2495;DHT22;1258;48.336;14.322;2024-03-23T12:52:31;5.60;99.90
2495;DHT22;1258;48.336;14.322;2024-03-23T12:54:58;5.60;99.90
2495;DHT22;1258;48.336;14.322;2024-03-23T12:57:25;5.60;99.90
2495;DHT22;1258;48.336;14.322;2024-03-23T12:59:52;5.30;99.90
2495;DHT22;1258;48.336;14.322;2024-03-23T13:02:19;5.20;99.90
2495;DHT22;1258;48.336;14.322;2024-03-23T13:04:46;5.30;99.90
2495;DHT22;1258;48.336;14.322;2024-03-23T13:07:15;5.10;99.90
2495;DHT22;1258;48.336;14.322;2024-03-23T13:09:41;5.10;99.90
2495;DHT22;1258;48.336;14.322;2024-03-23T13:12:09;4.90;99.90
2495;DHT22;1258;48.336;14.322;2024-03-23T13:14:35;4.60;99.90
2495;DHT22;1258;48.336;14.322;2024-03-23T13:17:02;4.50;99.90
2495;DHT22;1258;48.336;14.322;2024-03-23T13:19:29;4.50;99.90
2495;DHT22;1258;48.336;14.322;2024-03-23T13:21:57;4.40;99.90
2495;DHT22;1258;48.336;14.322;2024-03-23T13:24:24;4.30;99.90
2495;DHT22;1258;48.336;14.322;2024-03-23T13:26:52;4.40;99.90
2495;DHT22;1258;48.336;14.322;2024-03-23T13:29:18;4.40;99.90
2495;DHT22;1258;48.336;14.322;2024-03-23T13:31:45;4.30;99.90
2495;DHT22;1258;48.336;14.322;2024-03-23T13:34:11;4.20;99.90
2495;DHT22;1258;48.336;14.322;2024-03-23T13:36:40;4.10;99.90
2495;DHT22;1258;48.336;14.322;2024-03-23T13:39:06;4.10;99.90
2495;DHT22;1258;48.336;14.322;2024-03-23T13:41:38;4.20;99.90
2495;DHT22;1258;48.336;14.322;2024-03-23T13:44:05;4.10;99.90
2495;DHT22;1258;48.336;14.322;2024-03-23T13:46:32;4.10;99.90
2495;DHT22;1258;48.336;14.322;2024-03-23T13:48:58;4.10;99.90
2495;DHT22;1258;48.336;14.322;2024-03-23T13:51:25;4.20;99.90
2495;DHT22;1258;48.336;14.322;2024-03-23T13:53:53;4.20;99.90
2495;DHT22;1258;48.336;14.322;2024-03-23T13:56:20;4.30;99.90
2495;DHT22;1258;48.336;14.322;2024-03-23T13:58:47;4.40;99.90
2495;DHT22;1258;48.336;14.322;2024-03-23T14:01:14;4.40;99.90
2495;DHT22;1258;48.336;14.322;2024-03-23T14:03:40;4.50;99.90
2495;DHT22;1258;48.336;14.322;2024-03-23T14:06:08;4.50;99.90
2495;DHT22;1258;48.336;14.322;2024-03-23T14:08:34;4.40;99.90
2495;DHT22;1258;48.336;14.322;2024-03-23T14:11:04;4.20;99.90
2495;DHT22;1258;48.336;14.322;2024-03-23T14:13:31;3.80;99.90
2495;DHT22;1258;48.336;14.322;2024-03-23T14:15:59;3.50;99.90
2495;DHT22;1258;48.336;14.322;2024-03-23T14:18:25;3.40;99.90
2495;DHT22;1258;48.336;14.322;2024-03-23T14:20:56;3.50;99.90
2495;DHT22;1258;48.336;14.322;2024-03-23T14:23:24;3.40;99.90
2495;DHT22;1258;48.336;14.322;2024-03-23T14:25:53;3.50;99.90
2495;DHT22;1258;48.336;14.322;2024-03-23T14:28:19;3.40;99.90
2495;DHT22;1258;48.336;14.322;2024-03-23T14:30:47;3.30;99.90
2495;DHT22;1258;48.336;14.322;2024-03-23T14:33:14;3.20;99.90
2495;DHT22;1258;48.336;14.322;2024-03-23T14:35:41;3.10;99.90
2495;DHT22;1258;48.336;14.322;2024-03-23T14:38:07;3.30;99.90
2495;DHT22;1258;48.336;14.322;2024-03-23T14:40:34;3.40;99.90
2495;DHT22;1258;48.336;14.322;2024-03-23T14:43:00;3.30;99.90
2495;DHT22;1258;48.336;14.322;2024-03-23T14:45:28;3.30;99.90
2495;DHT22;1258;48.336;14.322;2024-03-23T14:47:54;3.30;99.90
2495;DHT22;1258;48.336;14.322;2024-03-23T14:50:22;3.30;99.90
2495;DHT22;1258;48.336;14.322;2024-03-23T14:52:48;3.30;99.90
2495;DHT22;1258;48.336;14.322;2024-03-23T14:55:16;3.30;99.90
2495;DHT22;1258;48.336;14.322;2024-03-23T14:57:42;3.30;99.90
2495;DHT22;1258;48.336;14.322;2024-03-23T15:00:10;3.30;99.90
2495;DHT22;1258;48.336;14.322;2024-03-23T15:02:37;3.40;99.90
2495;DHT22;1258;48.336;14.322;2024-03-23T15:05:04;3.40;99.90
2495;DHT22;1258;48.336;14.322;2024-03-23T15:07:32;3.30;99.90
2495;DHT22;1258;48.336;14.322;2024-03-23T15:09:59;3.20;99.90
2495;DHT22;1258;48.336;14.322;2024-03-23T15:12:25;3.00;99.90
2495;DHT22;1258;48.336;14.322;2024-03-23T15:14:52;3.00;99.90
2495;DHT22;1258;48.336;14.322;2024-03-23T15:17:18;2.80;99.90
2495;DHT22;1258;48.336;14.322;2024-03-23T15:19:45;2.80;99.90
2495;DHT22;1258;48.336;14.322;2024-03-23T15:22:10;2.80;99.90
2495;DHT22;1258;48.336;14.322;2024-03-23T15:24:39;2.80;99.90
2495;DHT22;1258;48.336;14.322;2024-03-23T15:27:05;2.90;99.90
2495;DHT22;1258;48.336;14.322;2024-03-23T15:29:34;3.00;99.90
2495;DHT22;1258;48.336;14.322;2024-03-23T15:32:02;2.90;99.90
2495;DHT22;1258;48.336;14.322;2024-03-23T15:34:29;2.90;99.90
2495;DHT22;1258;48.336;14.322;2024-03-23T15:36:55;2.90;99.90
2495;DHT22;1258;48.336;14.322;2024-03-23T15:39:22;2.90;99.90
2495;DHT22;1258;48.336;14.322;2024-03-23T15:41:49;3.00;99.90
2495;DHT22;1258;48.336;14.322;2024-03-23T15:44:16;3.10;99.90
2495;DHT22;1258;48.336;14.322;2024-03-23T15:46:42;3.00;99.90
2495;DHT22;1258;48.336;14.322;2024-03-23T15:49:09;3.10;99.90
2495;DHT22;1258;48.336;14.322;2024-03-23T15:51:35;3.30;99.90
2495;DHT22;1258;48.336;14.322;2024-03-23T15:54:03;3.20;99.90
2495;DHT22;1258;48.336;14.322;2024-03-23T15:56:29;3.50;99.90
2495;DHT22;1258;48.336;14.322;2024-03-23T15:58:57;3.60;99.90
2495;DHT22;1258;48.336;14.322;2024-03-23T16:01:31;3.50;99.90
2495;DHT22;1258;48.336;14.322;2024-03-23T16:03:59;3.40;99.90
2495;DHT22;1258;48.336;14.322;2024-03-23T16:06:25;3.40;99.90
2495;DHT22;1258;48.336;14.322;2024-03-23T16:08:52;3.40;99.90
2495;DHT22;1258;48.336;14.322;2024-03-23T16:11:18;3.40;99.90
2495;DHT22;1258;48.336;14.322;2024-03-23T16:13:46;3.40;99.90
2495;DHT22;1258;48.336;14.322;2024-03-23T16:16:13;3.50;99.90
2495;DHT22;1258;48.336;14.322;2024-03-23T16:18:41;3.40;99.90
2495;DHT22;1258;48.336;14.322;2024-03-23T16:21:09;3.40;99.90
2495;DHT22;1258;48.336;14.322;2024-03-23T16:23:36;3.50;99.90
2495;DHT22;1258;48.336;14.322;2024-03-23T16:26:03;3.70;99.90
2495;DHT22;1258;48.336;14.322;2024-03-23T16:28:31;3.60;99.90
2495;DHT22;1258;48.336;14.322;2024-03-23T16:30:58;3.60;99.90
2495;DHT22;1258;48.336;14.322;2024-03-23T16:33:28;3.70;99.90
2495;DHT22;1258;48.336;14.322;2024-03-23T16:36:02;3.70;99.90
2495;DHT22;1258;48.336;14.322;2024-03-23T16:38:30;3.70;99.90
2495;DHT22;1258;48.336;14.322;2024-03-23T16:41:00;3.70;99.90
2495;DHT22;1258;48.336;14.322;2024-03-23T16:43:27;3.60;99.90
2495;DHT22;1258;48.336;14.322;2024-03-23T16:45:55;3.40;99.90
2495;DHT22;1258;48.336;14.322;2024-03-23T16:48:23;3.50;99.90
2495;DHT22;1258;48.336;14.322;2024-03-23T16:50:51;3.30;99.90
2495;DHT22;1258;48.336;14.322;2024-03-23T16:53:18;3.40;99.90
2495;DHT22;1258;48.336;14.322;2024-03-23T16:55:44;3.40;99.90